CSN8523 ZGHA-ZYTX
Flight info
| Callsign | CSN8523 |
|---|---|
| Flight time | N/A |
| Altitude | 35100 |
| Route | K0861S1070 DCT OPORU W56 VYK W34 OTBUL W35 CHG A575 OMDUS OMD74A |
| Aircraft | A320/M-SDE3FGHIRWY/LB1 |
Departure
| Time | 2026-05-08 13:21 |
|---|---|
| Airport | Changsha Huanghua International Airport (ZGHA) |
Arrival
| Time | N/A |
|---|---|
| Airport | Shenyang Taoxian International Airport (ZYTX) |
| Time | Latitude | Longitude | Altitude | Speed | Heading |
|---|---|---|---|---|---|
| 2026-05-08 12:52 | 28.19000 | 113.21589 | 214 ft | 0 kts | 269° |
| 2026-05-08 13:13 | 28.19000 | 113.21603 | 195 ft | 4 kts | 269° |
| 2026-05-08 13:13 | 28.19000 | 113.21633 | 214 ft | 4 kts | 270° |
| 2026-05-08 13:13 | 28.19001 | 113.21658 | 215 ft | 4 kts | 242° |
| 2026-05-08 13:14 | 28.19018 | 113.21672 | 219 ft | 4 kts | 180° |
| 2026-05-08 13:14 | 28.19040 | 113.21670 | 215 ft | 0 kts | 177° |
| 2026-05-08 13:16 | 28.19027 | 113.21671 | 215 ft | 7 kts | 177° |
| 2026-05-08 13:16 | 28.18967 | 113.21675 | 214 ft | 10 kts | 177° |
| 2026-05-08 13:16 | 28.18898 | 113.21692 | 217 ft | 11 kts | 144° |
| 2026-05-08 13:17 | 28.18867 | 113.21769 | 217 ft | 12 kts | 139° |
| 2026-05-08 13:17 | 28.18786 | 113.21796 | 214 ft | 13 kts | 171° |
| 2026-05-08 13:17 | 28.18691 | 113.21803 | 217 ft | 14 kts | 176° |
| 2026-05-08 13:17 | 28.18586 | 113.21810 | 218 ft | 16 kts | 176° |
| 2026-05-08 13:18 | 28.18468 | 113.21817 | 213 ft | 18 kts | 177° |
| 2026-05-08 13:18 | 28.18336 | 113.21825 | 217 ft | 20 kts | 176° |
| 2026-05-08 13:18 | 28.18189 | 113.21834 | 218 ft | 22 kts | 176° |
| 2026-05-08 13:18 | 28.18031 | 113.21844 | 214 ft | 23 kts | 177° |
| 2026-05-08 13:19 | 28.17869 | 113.21854 | 214 ft | 24 kts | 176° |
| 2026-05-08 13:19 | 28.17748 | 113.21897 | 219 ft | 15 kts | 118° |
| 2026-05-08 13:19 | 28.17755 | 113.22015 | 224 ft | 16 kts | 63° |
| 2026-05-08 13:19 | 28.17843 | 113.22042 | 219 ft | 13 kts | 358° |
| 2026-05-08 13:20 | 28.17871 | 113.22040 | 216 ft | 1 kts | 356° |
| 2026-05-08 13:20 | 28.18018 | 113.22032 | 217 ft | 53 kts | 357° |
| 2026-05-08 13:20 | 28.18594 | 113.21997 | 215 ft | 110 kts | 357° |
| 2026-05-08 13:20 | 28.19521 | 113.21940 | 217 ft | 155 kts | 357° |
| 2026-05-08 13:21 | 28.20668 | 113.21879 | 534 ft | 168 kts | 356° |
| 2026-05-08 13:21 | 28.21829 | 113.21812 | 1167 ft | 167 kts | 357° |
| 2026-05-08 13:21 | 28.23023 | 113.21735 | 1525 ft | 181 kts | 358° |
| 2026-05-08 13:21 | 28.24362 | 113.21653 | 1733 ft | 204 kts | 359° |
| 2026-05-08 13:22 | 28.25819 | 113.21564 | 2187 ft | 213 kts | 359° |
| 2026-05-08 13:22 | 28.27290 | 113.21624 | 2879 ft | 212 kts | 16° |
| 2026-05-08 13:22 | 28.28607 | 113.22307 | 3508 ft | 214 kts | 39° |
| 2026-05-08 13:22 | 28.29591 | 113.23570 | 4126 ft | 217 kts | 57° |
| 2026-05-08 13:23 | 28.30429 | 113.25010 | 4786 ft | 221 kts | 57° |
| 2026-05-08 13:23 | 28.31286 | 113.26472 | 5420 ft | 224 kts | 57° |
| 2026-05-08 13:23 | 28.32162 | 113.27959 | 6036 ft | 230 kts | 57° |
| 2026-05-08 13:23 | 28.33058 | 113.29475 | 6674 ft | 233 kts | 56° |
| 2026-05-08 13:24 | 28.33984 | 113.31037 | 7095 ft | 248 kts | 56° |
| 2026-05-08 13:24 | 28.34883 | 113.32555 | 7347 ft | 268 kts | 56° |
| 2026-05-08 13:24 | 28.35939 | 113.34342 | 7998 ft | 273 kts | 55° |
| 2026-05-08 13:24 | 28.36956 | 113.36068 | 9078 ft | 260 kts | 54° |
| 2026-05-08 13:25 | 28.37962 | 113.37741 | 9923 ft | 259 kts | 52° |
| 2026-05-08 13:25 | 28.39052 | 113.39466 | 10202 ft | 281 kts | 51° |
| 2026-05-08 13:25 | 28.40278 | 113.41315 | 10523 ft | 301 kts | 50° |
| 2026-05-08 13:25 | 28.41556 | 113.43172 | 11523 ft | 291 kts | 48° |
| 2026-05-08 13:26 | 28.42782 | 113.44907 | 12766 ft | 274 kts | 46° |
| 2026-05-08 13:26 | 28.44045 | 113.46526 | 13419 ft | 279 kts | 38° |
| 2026-05-08 13:26 | 28.45547 | 113.48139 | 13158 ft | 325 kts | 46° |
| 2026-05-08 13:26 | 28.46574 | 113.50680 | 12500 ft | 392 kts | 80° |
| 2026-05-08 13:27 | 28.46826 | 113.53697 | 10948 ft | 381 kts | 93° |
| 2026-05-08 13:27 | 28.46294 | 113.56572 | 10187 ft | 349 kts | 109° |
| 2026-05-08 13:27 | 28.45422 | 113.59159 | 8111 ft | 356 kts | 115° |
| 2026-05-08 13:27 | 28.44221 | 113.61403 | 7754 ft | 311 kts | 128° |
| 2026-05-08 13:28 | 28.42717 | 113.62819 | 7621 ft | 266 kts | 159° |
| 2026-05-08 13:28 | 28.40944 | 113.63240 | 6653 ft | 260 kts | 179° |
| 2026-05-08 13:28 | 28.39168 | 113.63172 | 5839 ft | 250 kts | 188° |
| 2026-05-08 13:28 | 28.37516 | 113.62716 | 5044 ft | 242 kts | 200° |
| 2026-05-08 13:29 | 28.36024 | 113.61918 | 4043 ft | 244 kts | 213° |
| 2026-05-08 13:29 | 28.34747 | 113.60652 | 2615 ft | 244 kts | 225° |
| 2026-05-08 13:29 | 28.34385 | 113.60215 | 1377 ft | 0 kts | 278° |